Time;durP1;ratioP1;P1;durP2;ratioP2;P2;SDS_P1;SDS_P2;PMS_P1;PMS_P2;Temp;Humidity;BMP_temperature;BMP_pressure;BME280_temperature;BME280_humidity;BME280_pressure;Samples;Min_cycle;Max_cycle;Signal;HPM_P1;HPM_P2
2024/01/01 00:01:04;;;;;;;16.03;11.20;;;5.70;99.90;5.50;99527.00;;;;4899775;28;117704;-67
2024/01/01 00:03:30;;;;;;;17.10;10.77;;;6.30;99.90;5.60;99525.00;;;;4915325;28;88755;-67
2024/01/01 00:05:55;;;;;;;16.73;10.77;;;5.80;99.90;5.60;99511.00;;;;4900535;28;112691;-67
2024/01/01 00:08:21;;;;;;;23.83;12.27;;;6.20;99.90;5.60;99517.00;;;;4901181;28;87226;-67
2024/01/01 00:10:47;;;;;;;18.83;10.93;;;6.60;99.90;5.60;99519.00;;;;4905719;28;118737;-66
2024/01/01 00:13:13;;;;;;;15.83;9.63;;;5.70;99.90;5.60;99528.00;;;;4903720;28;94336;-67
2024/01/01 00:15:38;;;;;;;12.77;8.03;;;5.80;99.90;5.60;99516.00;;;;4900802;28;112762;-68
2024/01/01 00:18:04;;;;;;;11.53;9.07;;;5.80;99.90;5.60;99531.00;;;;4905264;28;108263;-67
2024/01/01 00:20:30;;;;;;;9.80;6.83;;;5.80;99.90;5.60;99532.00;;;;4904253;28;112870;-67
2024/01/01 00:22:56;;;;;;;15.50;8.30;;;5.80;99.90;5.60;99513.00;;;;4903465;28;116770;-67
2024/01/01 00:25:21;;;;;;;16.07;9.57;;;5.70;99.90;5.60;99519.00;;;;4905047;28;110625;-67
2024/01/01 00:27:47;;;;;;;12.80;8.43;;;5.80;99.90;5.60;99512.00;;;;4905280;28;108841;-67
2024/01/01 00:30:13;;;;;;;13.23;7.93;;;6.40;99.90;5.60;99519.00;;;;4906596;28;116792;-68
2024/01/01 00:32:38;;;;;;;16.43;8.80;;;5.80;99.90;5.60;99505.00;;;;4904789;28;87202;-67
2024/01/01 00:35:05;;;;;;;15.37;8.20;;;6.60;99.90;5.60;99509.00;;;;4905738;28;87970;-67
2024/01/01 00:37:30;;;;;;;12.03;8.23;;;5.80;99.90;5.70;99511.00;;;;4904839;28;97763;-67
2024/01/01 00:39:56;;;;;;;12.37;9.00;;;6.20;99.90;5.60;99530.00;;;;4905576;28;119506;-67
2024/01/01 00:42:22;;;;;;;15.23;7.67;;;6.00;99.90;5.70;99544.00;;;;4905931;28;119596;-68
2024/01/01 00:44:48;;;;;;;17.30;7.40;;;5.80;99.90;5.70;99536.00;;;;4906064;28;87715;-68
2024/01/01 00:47:13;;;;;;;10.63;8.07;;;6.00;99.90;5.70;99540.00;;;;4907814;28;96482;-67
2024/01/01 00:49:39;;;;;;;11.43;8.03;;;6.10;99.90;5.70;99535.00;;;;4903722;28;88019;-68
2024/01/01 00:52:06;;;;;;;9.37;7.57;;;5.90;99.90;5.70;99523.00;;;;4902036;28;109768;-69
2024/01/01 00:54:31;;;;;;;13.77;8.30;;;5.90;99.90;5.80;99517.00;;;;4906177;28;87843;-68
2024/01/01 00:56:58;;;;;;;18.47;9.50;;;6.00;99.90;5.80;99523.00;;;;4904110;28;102953;-68
2024/01/01 00:59:24;;;;;;;15.20;8.27;;;6.40;99.90;5.80;99508.00;;;;4904289;28;91431;-68
2024/01/01 01:01:50;;;;;;;16.03;9.40;;;5.90;99.90;5.80;99512.00;;;;4902700;28;88698;-68
2024/01/01 01:04:16;;;;;;;18.23;10.00;;;6.00;99.90;5.80;99522.00;;;;4902804;28;88838;-66
2024/01/01 01:06:43;;;;;;;20.60;10.87;;;6.20;99.90;5.80;99521.00;;;;4902708;28;96741;-68
2024/01/01 01:09:09;;;;;;;20.07;9.47;;;6.00;99.90;5.80;99517.00;;;;4907443;28;90349;-68
2024/01/01 01:11:35;;;;;;;15.57;8.80;;;5.90;99.90;5.80;99520.00;;;;4902744;28;99716;-67
2024/01/01 01:14:01;;;;;;;19.50;9.40;;;5.90;99.90;5.80;99521.00;;;;4919354;28;87737;-68
2024/01/01 01:16:27;;;;;;;21.80;10.70;;;6.00;99.90;5.80;99514.00;;;;4910564;28;94177;-68
2024/01/01 01:18:52;;;;;;;16.33;10.30;;;5.60;99.90;5.80;99511.00;;;;4901088;28;116490;-69
2024/01/01 01:21:18;;;;;;;16.50;10.27;;;5.90;99.90;5.80;99509.00;;;;4901193;28;101887;-69
2024/01/01 01:23:44;;;;;;;20.07;10.53;;;6.00;99.90;5.80;99501.00;;;;4902927;28;114008;-68
2024/01/01 01:26:09;;;;;;;19.90;11.33;;;6.20;99.90;5.80;99502.00;;;;4899601;28;104835;-69
2024/01/01 01:28:35;;;;;;;21.63;12.47;;;6.00;99.90;5.80;99503.00;;;;4903148;28;117092;-69
2024/01/01 01:31:03;;;;;;;19.60;13.47;;;6.00;99.90;5.80;99509.00;;;;4900337;28;119593;-69
2024/01/01 01:33:29;;;;;;;23.90;12.20;;;6.00;99.90;5.80;99506.00;;;;4899613;28;111619;-67
2024/01/01 01:35:55;;;;;;;20.93;12.93;;;6.80;99.90;5.80;99508.00;;;;4907032;28;87935;-67
2024/01/01 01:38:22;;;;;;;19.67;13.13;;;6.20;99.90;5.80;99518.00;;;;4905079;28;93665;-67
2024/01/01 01:40:48;;;;;;;20.77;12.30;;;6.90;99.90;5.80;99510.00;;;;4906030;28;88390;-67
2024/01/01 01:43:26;;;;;;;18.83;11.37;;;6.00;99.90;5.80;99512.00;;;;4901886;28;113087;-67
2024/01/01 01:45:52;;;;;;;17.40;10.50;;;6.60;99.90;5.80;99509.00;;;;4917943;28;87120;-67
2024/01/01 01:48:19;;;;;;;15.23;10.10;;;6.00;99.90;5.80;99519.00;;;;4906816;28;119348;-67
2024/01/01 01:50:46;;;;;;;17.70;10.20;;;6.00;99.90;5.80;99514.00;;;;4905780;28;88032;-68
2024/01/01 01:53:14;;;;;;;16.27;10.90;;;6.00;99.90;5.80;99512.00;;;;4903682;28;106349;-67
2024/01/01 01:55:43;;;;;;;18.83;10.07;;;6.00;99.90;5.80;99499.00;;;;4904587;28;88057;-67
2024/01/01 01:58:10;;;;;;;16.40;8.13;;;6.30;99.90;5.90;99489.00;;;;4903799;28;110136;-68
2024/01/01 02:00:39;;;;;;;13.53;8.03;;;6.40;99.90;6.00;99500.00;;;;4905922;28;88425;-68
2024/01/01 02:03:07;;;;;;;15.10;7.03;;;6.10;99.90;6.00;99494.00;;;;4907486;28;105567;-68
2024/01/01 02:05:33;;;;;;;11.37;6.57;;;6.80;99.90;6.10;99492.00;;;;4905793;28;87759;-67
2024/01/01 02:08:02;;;;;;;15.20;7.97;;;6.30;99.90;6.20;99493.00;;;;4906276;28;116958;-67
2024/01/01 02:10:28;;;;;;;12.83;6.47;;;6.30;99.90;6.30;99504.00;;;;4904817;28;110409;-68
2024/01/01 02:12:54;;;;;;;13.50;5.50;;;6.70;99.90;6.30;99492.00;;;;4911831;28;108455;-69
2024/01/01 02:15:22;;;;;;;8.03;6.03;;;6.70;99.90;6.50;99491.00;;;;4895900;28;87879;-69
2024/01/01 02:17:48;;;;;;;6.07;4.77;;;6.90;99.90;6.50;99491.00;;;;4906571;28;90092;-68
2024/01/01 02:20:14;;;;;;;12.17;5.77;;;6.60;99.90;6.60;99485.00;;;;4903965;28;117829;-67
2024/01/01 02:22:41;;;;;;;12.10;6.37;;;6.70;99.90;6.60;99475.00;;;;4904362;28;88005;-67
2024/01/01 02:25:09;;;;;;;6.60;4.67;;;6.80;99.90;6.70;99471.00;;;;4905985;28;88129;-67
2024/01/01 02:27:39;;;;;;;8.90;5.13;;;6.80;99.90;6.70;99486.00;;;;4922685;28;88153;-68
2024/01/01 02:30:10;;;;;;;8.30;5.13;;;6.80;99.90;6.80;99489.00;;;;4910893;28;88081;-68
2024/01/01 02:32:37;;;;;;;10.87;5.73;;;6.90;99.90;6.80;99489.00;;;;4906347;28;88379;-69
2024/01/01 02:35:08;;;;;;;9.13;5.63;;;6.90;99.90;6.80;99486.00;;;;4906391;28;87469;-68
2024/01/01 02:37:34;;;;;;;15.93;5.70;;;7.00;99.90;6.90;99484.00;;;;4910888;28;89877;-67
2024/01/01 02:40:02;;;;;;;9.90;5.77;;;7.00;99.90;6.90;99498.00;;;;4905014;28;111801;-67
2024/01/01 02:42:32;;;;;;;8.73;5.53;;;7.10;99.90;7.00;99494.00;;;;4906237;28;89046;-69
2024/01/01 02:44:58;;;;;;;7.90;4.97;;;7.10;99.90;7.00;99493.00;;;;4923992;28;87994;-68
2024/01/01 02:47:23;;;;;;;8.53;5.60;;;7.20;99.90;7.00;99496.00;;;;4907728;28;117451;-67
2024/01/01 02:49:49;;;;;;;10.70;5.60;;;7.10;99.90;7.00;99497.00;;;;4907835;28;116767;-68
2024/01/01 02:52:15;;;;;;;7.27;5.57;;;7.10;99.90;7.00;99491.00;;;;4905138;28;91377;-67
2024/01/01 02:54:41;;;;;;;8.10;5.50;;;7.30;99.90;7.00;99503.00;;;;4904183;28;108790;-67
2024/01/01 02:57:06;;;;;;;9.20;5.37;;;7.10;99.90;6.90;99505.00;;;;4904448;28;118788;-67
2024/01/01 02:59:35;;;;;;;11.80;6.80;;;7.40;99.90;6.90;99505.00;;;;4904988;28;117421;-68
2024/01/01 03:02:00;;;;;;;5.77;5.13;;;7.10;99.90;6.90;99507.00;;;;4905717;28;89358;-67
2024/01/01 03:04:31;;;;;;;10.27;6.53;;;7.10;99.90;6.90;99501.00;;;;4908520;28;88243;-67
2024/01/01 03:06:57;;;;;;;10.10;5.70;;;7.00;99.90;6.90;99510.00;;;;4904762;28;90283;-69
2024/01/01 03:09:23;;;;;;;11.53;6.87;;;7.00;99.90;6.90;99505.00;;;;4905825;28;89594;-67
2024/01/01 03:11:49;;;;;;;14.47;6.83;;;7.10;99.90;6.90;99512.00;;;;4906935;28;89144;-69
2024/01/01 03:14:14;;;;;;;9.77;5.70;;;7.10;99.90;6.80;99500.00;;;;4903456;28;108931;-67
2024/01/01 03:16:40;;;;;;;11.13;7.00;;;7.10;99.90;6.80;99504.00;;;;4904588;28;115822;-69
2024/01/01 03:19:06;;;;;;;11.27;6.30;;;7.00;99.90;6.80;99504.00;;;;4906240;28;98073;-68
2024/01/01 03:21:32;;;;;;;12.47;7.00;;;6.70;99.90;6.80;99504.00;;;;4903525;28;110657;-68
2024/01/01 03:23:57;;;;;;;9.07;6.40;;;6.90;99.90;6.80;99491.00;;;;4906483;28;87195;-69
2024/01/01 03:26:26;;;;;;;8.63;7.07;;;7.00;99.90;6.80;99488.00;;;;4904792;28;116323;-68
2024/01/01 03:28:52;;;;;;;14.10;7.10;;;7.20;99.90;6.80;99496.00;;;;4905198;28;116962;-68
2024/01/01 03:31:17;;;;;;;10.53;6.27;;;6.90;99.90;6.70;99496.00;;;;4903108;28;110007;-68
2024/01/01 03:33:45;;;;;;;12.97;6.37;;;6.80;99.90;6.70;99488.00;;;;4905091;28;87797;-67
2024/01/01 03:36:12;;;;;;;13.20;7.40;;;6.80;99.90;6.60;99488.00;;;;4904412;28;88215;-67
2024/01/01 03:38:37;;;;;;;8.10;6.33;;;6.80;99.90;6.60;99482.00;;;;4902923;28;98995;-67
2024/01/01 03:41:03;;;;;;;11.50;6.60;;;7.40;99.90;6.50;99480.00;;;;4903879;28;95608;-69
2024/01/01 03:43:30;;;;;;;14.80;7.40;;;6.80;99.90;6.50;99476.00;;;;4906425;28;88023;-68
2024/01/01 03:45:56;;;;;;;11.40;7.47;;;6.70;99.90;6.50;99482.00;;;;4905838;28;88082;-68
2024/01/01 03:48:22;;;;;;;11.57;6.70;;;6.70;99.90;6.50;99476.00;;;;4904748;28;116883;-67
2024/01/01 03:50:47;;;;;;;10.93;7.40;;;6.60;99.90;6.40;99477.00;;;;4904572;28;110766;-68
2024/01/01 03:53:13;;;;;;;11.93;7.37;;;6.50;99.90;6.30;99484.00;;;;4904511;28;109494;-68
2024/01/01 03:55:39;;;;;;;15.37;7.13;;;6.50;99.90;6.30;99470.00;;;;4903389;28;118531;-67
2024/01/01 03:58:04;;;;;;;13.63;7.30;;;6.50;99.90;6.30;99479.00;;;;4900907;28;119239;-69
2024/01/01 04:00:30;;;;;;;14.17;7.43;;;6.90;99.90;6.30;99471.00;;;;4907987;28;109372;-67
2024/01/01 04:02:56;;;;;;;15.77;6.53;;;6.60;99.90;6.20;99477.00;;;;4903962;28;87619;-69
2024/01/01 04:05:22;;;;;;;23.07;7.70;;;7.10;99.90;6.20;99482.00;;;;4905916;28;118152;-67
2024/01/01 04:07:47;;;;;;;11.07;6.77;;;6.40;99.90;6.20;99480.00;;;;4905646;28;88534;-68
2024/01/01 04:10:13;;;;;;;13.93;5.57;;;6.60;99.90;6.20;99474.00;;;;4902442;28;111261;-67
2024/01/01 04:12:39;;;;;;;16.83;6.80;;;6.70;99.90;6.10;99477.00;;;;4908250;28;86925;-69
2024/01/01 04:15:05;;;;;;;12.97;7.33;;;7.10;99.90;6.10;99468.00;;;;4903484;28;88716;-67
2024/01/01 04:17:32;;;;;;;15.10;9.47;;;6.30;99.90;6.10;99468.00;;;;4905350;28;108714;-69
2024/01/01 04:19:58;;;;;;;14.20;6.37;;;6.70;99.90;6.00;99470.00;;;;4919576;28;89058;-68
2024/01/01 04:22:23;;;;;;;13.13;6.53;;;6.70;99.90;6.00;99483.00;;;;4904063;28;87941;-69
2024/01/01 04:24:49;;;;;;;8.83;5.63;;;6.60;99.90;6.10;99472.00;;;;4899912;28;116817;-68
2024/01/01 04:27:15;;;;;;;10.30;5.70;;;6.50;99.90;6.10;99473.00;;;;4905205;28;118124;-67
2024/01/01 04:29:41;;;;;;;7.47;4.63;;;6.20;99.90;6.10;99478.00;;;;4908027;28;87714;-68
2024/01/01 04:32:07;;;;;;;11.13;4.67;;;6.80;99.90;6.10;99470.00;;;;4905784;28;104224;-67
2024/01/01 04:34:32;;;;;;;8.50;4.60;;;6.80;99.90;6.10;99470.00;;;;4903204;28;89236;-67
2024/01/01 04:36:58;;;;;;;7.80;4.47;;;6.30;99.90;6.00;99472.00;;;;4905751;28;116616;-67
2024/01/01 04:39:23;;;;;;;8.57;4.40;;;6.20;99.90;6.00;99470.00;;;;4904217;28;109170;-69
2024/01/01 04:41:49;;;;;;;6.43;4.80;;;6.20;99.90;6.00;99479.00;;;;4893316;28;108979;-68
2024/01/01 04:44:15;;;;;;;10.73;4.57;;;6.20;99.90;6.00;99477.00;;;;4900403;28;117164;-68
2024/01/01 04:46:40;;;;;;;4.37;3.47;;;6.70;99.90;5.90;99468.00;;;;4902534;28;116902;-67
2024/01/01 04:49:06;;;;;;;9.10;4.07;;;6.10;99.90;6.00;99468.00;;;;4902967;28;110716;-67
2024/01/01 04:51:32;;;;;;;8.83;3.57;;;6.50;99.90;6.00;99470.00;;;;4903296;28;108627;-68
2024/01/01 04:53:57;;;;;;;7.40;3.40;;;6.90;99.90;6.00;99478.00;;;;4904077;28;88438;-69
2024/01/01 04:56:23;;;;;;;5.63;3.27;;;6.10;99.90;6.00;99472.00;;;;4906448;28;116890;-69
2024/01/01 04:58:51;;;;;;;7.77;4.13;;;6.20;99.90;6.00;99477.00;;;;4906791;28;99491;-69
2024/01/01 05:01:17;;;;;;;7.87;3.83;;;6.80;99.90;6.00;99468.00;;;;4903794;28;99843;-69
2024/01/01 05:03:43;;;;;;;5.47;3.13;;;6.30;99.90;6.00;99468.00;;;;4904836;28;88278;-70
2024/01/01 05:06:08;;;;;;;7.17;3.30;;;6.20;99.90;6.00;99469.00;;;;4892125;28;117424;-69
2024/01/01 05:08:34;;;;;;;8.30;3.93;;;6.20;99.90;6.10;99472.00;;;;4901365;28;107574;-69
2024/01/01 05:11:06;;;;;;;5.03;3.13;;;6.20;99.90;6.10;99469.00;;;;4905518;28;96966;-68
2024/01/01 05:13:32;;;;;;;3.93;3.13;;;6.30;99.90;6.20;99470.00;;;;4906730;28;87927;-68
2024/01/01 05:15:57;;;;;;;5.57;2.70;;;6.30;99.90;6.10;99462.00;;;;4905777;28;107114;-66
2024/01/01 05:18:29;;;;;;;6.17;3.30;;;6.30;99.90;6.10;99467.00;;;;4904481;28;109885;-67
2024/01/01 05:20:54;;;;;;;6.07;2.50;;;6.30;99.90;6.10;99472.00;;;;4904135;28;108304;-67
2024/01/01 05:23:20;;;;;;;7.43;3.17;;;6.60;99.90;6.10;99465.00;;;;4906126;28;118518;-67
2024/01/01 05:25:46;;;;;;;8.00;3.67;;;6.20;99.90;6.00;99458.00;;;;4910590;28;87204;-67
2024/01/01 05:28:11;;;;;;;5.37;3.23;;;6.10;99.90;5.90;99466.00;;;;4907043;28;109702;-68
2024/01/01 05:30:37;;;;;;;3.03;2.20;;;6.10;99.90;5.90;99463.00;;;;4903568;28;109398;-68
2024/01/01 05:33:03;;;;;;;2.80;2.53;;;6.10;99.90;5.90;99463.00;;;;4907008;28;90060;-69
2024/01/01 05:35:31;;;;;;;4.73;2.40;;;6.00;99.90;6.00;99469.00;;;;4905078;28;106780;-67
2024/01/01 05:37:56;;;;;;;3.43;2.73;;;6.20;99.90;6.00;99472.00;;;;4910785;28;87959;-67
2024/01/01 05:40:23;;;;;;;8.50;2.87;;;6.10;99.90;6.00;99463.00;;;;4906991;28;87820;-67
2024/01/01 05:42:49;;;;;;;3.03;2.40;;;6.20;99.90;6.10;99458.00;;;;4907365;28;117691;-67
2024/01/01 05:45:15;;;;;;;2.93;2.47;;;6.70;99.90;6.10;99459.00;;;;4907552;28;117551;-68
2024/01/01 05:47:40;;;;;;;4.03;2.80;;;6.20;99.90;6.20;99457.00;;;;4905288;28;96784;-67
2024/01/01 05:50:06;;;;;;;5.03;3.23;;;6.30;99.90;6.20;99458.00;;;;4906332;28;92384;-69
2024/01/01 05:52:32;;;;;;;7.23;2.37;;;6.40;99.90;6.30;99468.00;;;;4908472;28;88293;-68
2024/01/01 05:54:58;;;;;;;4.57;2.43;;;6.40;99.90;6.30;99466.00;;;;4906924;28;117690;-67
2024/01/01 05:57:23;;;;;;;5.77;2.50;;;6.60;99.90;6.30;99463.00;;;;4904234;28;110665;-68
2024/01/01 05:59:49;;;;;;;11.00;3.13;;;6.70;99.90;6.30;99463.00;;;;4905141;28;110168;-67
2024/01/01 06:02:15;;;;;;;4.90;2.57;;;6.40;99.90;6.20;99470.00;;;;4906109;28;117876;-67
2024/01/01 06:04:40;;;;;;;3.67;2.53;;;6.80;99.90;6.20;99468.00;;;;4906829;28;116242;-68
2024/01/01 06:07:06;;;;;;;4.33;2.03;;;6.30;99.90;6.20;99483.00;;;;4906912;28;109741;-68
2024/01/01 06:09:34;;;;;;;1.97;1.77;;;6.40;99.90;6.20;99480.00;;;;4904989;28;108143;-68
2024/01/01 06:12:00;;;;;;;3.90;2.67;;;6.40;99.90;6.20;99472.00;;;;4908137;28;87903;-67
2024/01/01 06:14:26;;;;;;;7.17;2.27;;;7.00;99.90;6.20;99472.00;;;;4904054;28;107063;-68
2024/01/01 06:16:52;;;;;;;3.00;1.83;;;7.10;99.90;6.30;99477.00;;;;4904729;28;110509;-69
2024/01/01 06:19:17;;;;;;;7.27;2.93;;;6.40;99.90;6.30;99476.00;;;;4906415;28;91540;-68
2024/01/01 06:21:43;;;;;;;3.77;2.30;;;6.60;99.90;6.30;99466.00;;;;4902932;28;119224;-67
2024/01/01 06:24:08;;;;;;;4.83;2.90;;;6.50;99.90;6.30;99469.00;;;;4904031;28;117740;-69
2024/01/01 06:26:34;;;;;;;4.43;2.00;;;6.60;99.90;6.30;99468.00;;;;4903167;28;108665;-67
2024/01/01 06:29:00;;;;;;;2.80;2.30;;;6.50;99.90;6.30;99465.00;;;;4906007;28;87833;-67
2024/01/01 06:31:25;;;;;;;4.10;2.00;;;7.20;99.90;6.40;99467.00;;;;4904694;28;116919;-68
2024/01/01 06:33:51;;;;;;;5.77;2.70;;;6.50;99.90;6.30;99462.00;;;;4901619;28;118064;-67
2024/01/01 06:36:17;;;;;;;3.33;2.37;;;6.50;99.90;6.40;99472.00;;;;4904384;28;110408;-68
2024/01/01 06:38:43;;;;;;;2.10;1.83;;;6.50;99.90;6.40;99474.00;;;;4905371;28;90107;-69
2024/01/01 06:41:09;;;;;;;2.23;2.00;;;6.50;99.90;6.40;99475.00;;;;4905536;28;117645;-67
2024/01/01 06:43:34;;;;;;;2.33;1.60;;;6.60;99.90;6.40;99475.00;;;;4904917;28;87977;-68
2024/01/01 06:46:00;;;;;;;6.87;2.23;;;6.50;99.90;6.40;99475.00;;;;4903239;28;110716;-68
2024/01/01 06:48:26;;;;;;;3.33;2.50;;;6.50;99.90;6.40;99483.00;;;;4903782;28;100683;-68
2024/01/01 06:50:52;;;;;;;2.00;1.73;;;6.80;99.90;6.40;99490.00;;;;4904445;28;88086;-67
2024/01/01 06:53:18;;;;;;;2.70;2.17;;;6.50;99.90;6.40;99498.00;;;;4902764;28;116366;-67
2024/01/01 06:55:43;;;;;;;2.70;1.63;;;6.60;99.90;6.40;99492.00;;;;4906101;28;109909;-68
2024/01/01 06:58:09;;;;;;;2.60;1.77;;;6.60;99.90;6.40;99495.00;;;;4903059;28;87897;-68
2024/01/01 07:00:35;;;;;;;5.70;2.27;;;6.50;99.90;6.40;99493.00;;;;4902141;28;104578;-68
2024/01/01 07:03:00;;;;;;;2.97;2.17;;;7.10;99.90;6.40;99498.00;;;;4906028;28;116920;-68
2024/01/01 07:05:28;;;;;;;8.23;3.13;;;6.70;99.90;6.40;99502.00;;;;4902644;28;87983;-68
2024/01/01 07:07:55;;;;;;;6.30;2.90;;;7.00;99.90;6.50;99505.00;;;;4904320;28;88100;-67
2024/01/01 07:10:21;;;;;;;3.70;2.50;;;7.10;99.90;6.50;99495.00;;;;4903626;28;89092;-67
2024/01/01 07:12:46;;;;;;;3.13;1.73;;;6.60;99.90;6.50;99518.00;;;;4910747;28;88035;-68
2024/01/01 07:15:12;;;;;;;3.77;2.00;;;6.60;99.90;6.50;99521.00;;;;4893375;28;110190;-67
2024/01/01 07:17:37;;;;;;;3.03;1.97;;;6.60;99.90;6.60;99522.00;;;;4906108;28;87971;-68
2024/01/01 07:20:04;;;;;;;4.87;2.53;;;7.50;99.90;6.60;99524.00;;;;4902790;28;117520;-69
2024/01/01 07:22:30;;;;;;;4.17;1.90;;;6.80;99.90;6.60;99536.00;;;;4903996;28;88890;-67
2024/01/01 07:24:56;;;;;;;7.37;2.43;;;7.00;99.90;6.70;99538.00;;;;4911009;28;88110;-67
2024/01/01 07:27:22;;;;;;;3.43;1.97;;;6.80;99.90;6.70;99533.00;;;;4910789;28;109416;-67
2024/01/01 07:29:47;;;;;;;6.47;2.23;;;6.90;99.90;6.70;99536.00;;;;4905206;28;100762;-67
2024/01/01 07:32:13;;;;;;;5.00;1.67;;;6.90;99.90;6.70;99531.00;;;;4901687;28;118920;-68
2024/01/01 07:34:39;;;;;;;6.43;2.23;;;6.90;99.90;6.80;99541.00;;;;4904849;28;88658;-67
2024/01/01 07:37:05;;;;;;;5.70;1.67;;;6.90;99.90;6.80;99540.00;;;;4906204;28;87907;-68
2024/01/01 07:39:31;;;;;;;2.57;1.80;;;6.90;99.90;6.90;99527.00;;;;4902274;28;87936;-67
2024/01/01 07:41:57;;;;;;;3.13;2.33;;;7.20;99.90;6.90;99528.00;;;;4902972;28;88084;-68
2024/01/01 07:44:23;;;;;;;2.43;1.77;;;7.10;99.90;6.90;99525.00;;;;4904179;28;88327;-67
2024/01/01 07:46:49;;;;;;;3.53;1.83;;;7.20;99.90;7.00;99536.00;;;;4903218;28;108351;-68
2024/01/01 07:49:18;;;;;;;5.07;2.43;;;7.40;99.90;7.00;99535.00;;;;4904203;28;94263;-67
2024/01/01 07:51:44;;;;;;;5.43;2.00;;;7.30;99.90;7.00;99543.00;;;;4904994;28;87802;-68
2024/01/01 07:54:10;;;;;;;2.33;1.70;;;7.20;99.90;7.00;99548.00;;;;4906981;28;87971;-67
2024/01/01 07:56:43;;;;;;;3.93;2.20;;;7.20;99.90;7.10;99548.00;;;;4918697;28;88370;-68
2024/01/01 07:59:10;;;;;;;4.83;1.63;;;7.20;99.90;7.10;99547.00;;;;4898786;28;89359;-67
2024/01/01 08:01:36;;;;;;;2.90;2.03;;;7.20;99.90;7.10;99557.00;;;;4901390;28;89308;-67
2024/01/01 08:04:01;;;;;;;5.00;2.67;;;7.60;99.90;7.20;99562.00;;;;4901516;28;109702;-68
2024/01/01 08:06:27;;;;;;;2.90;2.63;;;7.30;99.90;7.20;99566.00;;;;4898844;28;107741;-68
2024/01/01 08:08:53;;;;;;;3.17;2.17;;;7.30;99.90;7.20;99571.00;;;;4902513;28;117976;-67
2024/01/01 08:11:19;;;;;;;2.93;2.53;;;7.50;99.90;7.20;99567.00;;;;4900203;28;117475;-67
2024/01/01 08:13:45;;;;;;;4.87;3.30;;;7.30;99.90;7.20;99569.00;;;;4904871;28;87863;-67
2024/01/01 08:16:11;;;;;;;2.87;2.50;;;7.20;99.90;7.20;99579.00;;;;4903527;28;87589;-67
2024/01/01 08:18:37;;;;;;;3.03;2.37;;;7.40;99.90;7.20;99573.00;;;;4903467;28;103765;-69
2024/01/01 08:21:03;;;;;;;4.47;2.07;;;7.30;99.90;7.20;99568.00;;;;4898335;28;117594;-68
2024/01/01 08:23:29;;;;;;;3.50;2.50;;;7.40;99.90;7.30;99580.00;;;;4900618;28;88964;-68
2024/01/01 08:25:54;;;;;;;5.33;2.30;;;7.40;99.90;7.30;99570.00;;;;4898951;28;108831;-67
2024/01/01 08:28:20;;;;;;;3.27;1.90;;;7.40;99.90;7.30;99570.00;;;;4902545;28;117873;-67
2024/01/01 08:30:48;;;;;;;3.50;2.33;;;7.40;99.90;7.30;99585.00;;;;4900087;28;116159;-68
2024/01/01 08:33:14;;;;;;;5.27;2.73;;;7.50;99.90;7.40;99586.00;;;;4899459;28;87946;-67
2024/01/01 08:35:40;;;;;;;4.57;2.63;;;7.50;99.90;7.50;99570.00;;;;4898275;28;87876;-68
2024/01/01 08:38:05;;;;;;;6.03;2.50;;;7.60;99.90;7.70;99564.00;;;;4897120;28;116493;-67
2024/01/01 08:40:31;;;;;;;2.80;1.97;;;7.70;99.90;8.00;99575.00;;;;4900923;28;117974;-67
2024/01/01 08:42:57;;;;;;;2.97;2.57;;;8.00;99.90;8.20;99572.00;;;;4901058;28;110632;-68
2024/01/01 08:45:23;;;;;;;4.00;2.27;;;8.20;99.90;8.30;99568.00;;;;4903409;28;106383;-68
2024/01/01 08:47:48;;;;;;;3.77;2.93;;;8.40;99.90;8.30;99562.00;;;;4902100;28;89071;-68
2024/01/01 08:50:14;;;;;;;3.70;2.50;;;8.40;99.90;8.30;99573.00;;;;4900419;28;89826;-67
2024/01/01 08:52:42;;;;;;;4.50;2.30;;;8.40;99.90;8.30;99575.00;;;;4903711;28;88196;-67
2024/01/01 08:55:08;;;;;;;4.83;3.00;;;8.40;99.90;8.20;99574.00;;;;4906270;28;88211;-69
2024/01/01 08:57:34;;;;;;;6.27;3.00;;;8.40;99.90;8.10;99578.00;;;;4914786;28;106697;-68
2024/01/01 08:59:59;;;;;;;3.03;2.30;;;8.30;99.90;8.10;99577.00;;;;4910511;28;88056;-67
2024/01/01 09:02:25;;;;;;;4.10;2.50;;;8.20;99.90;8.10;99584.00;;;;4899029;28;110610;-67
2024/01/01 09:04:51;;;;;;;4.50;2.30;;;8.30;99.90;8.10;99573.00;;;;4907944;28;107419;-69
2024/01/01 09:07:17;;;;;;;3.90;2.60;;;8.80;99.90;8.10;99584.00;;;;4901925;28;116560;-68
2024/01/01 09:09:43;;;;;;;8.17;2.70;;;8.30;99.90;8.20;99581.00;;;;4901457;28;89087;-68
2024/01/01 09:12:09;;;;;;;4.53;2.97;;;8.30;99.90;8.20;99588.00;;;;4903499;28;89812;-67
2024/01/01 09:14:35;;;;;;;6.30;2.70;;;8.30;99.90;8.10;99576.00;;;;4902638;28;108688;-69
2024/01/01 09:17:02;;;;;;;3.30;2.13;;;8.30;99.90;8.20;99592.00;;;;4901757;28;88864;-68
2024/01/01 09:19:28;;;;;;;4.53;3.17;;;8.30;99.90;8.20;99591.00;;;;4903409;28;88387;-67
2024/01/01 09:21:53;;;;;;;5.47;3.13;;;8.20;99.90;8.30;99601.00;;;;4902288;28;110878;-67
2024/01/01 09:24:19;;;;;;;3.50;2.40;;;8.40;99.90;8.40;99587.00;;;;4901482;28;87879;-67
2024/01/01 09:26:46;;;;;;;3.80;2.10;;;8.40;99.90;8.40;99586.00;;;;4900767;28;117513;-68
2024/01/01 09:29:12;;;;;;;3.20;2.20;;;8.50;99.90;8.40;99583.00;;;;4905854;28;87430;-67
2024/01/01 09:31:37;;;;;;;5.63;2.70;;;8.60;99.90;8.40;99592.00;;;;4900204;28;108104;-68
2024/01/01 09:34:06;;;;;;;3.30;2.17;;;8.50;99.90;8.40;99597.00;;;;4905007;28;88393;-67
2024/01/01 09:36:31;;;;;;;3.90;2.57;;;8.50;99.90;8.40;99590.00;;;;4902206;28;89359;-67
2024/01/01 09:38:58;;;;;;;3.97;2.60;;;8.50;99.90;8.40;99599.00;;;;4904706;28;118803;-67
2024/01/01 09:41:25;;;;;;;4.97;2.53;;;8.40;99.90;8.40;99600.00;;;;4901270;28;88013;-67
2024/01/01 09:43:52;;;;;;;2.80;2.47;;;8.50;99.90;8.40;99607.00;;;;4903668;28;87864;-68
2024/01/01 09:46:17;;;;;;;5.23;2.30;;;8.40;99.90;8.40;99586.00;;;;4901190;28;88147;-67
2024/01/01 09:48:45;;;;;;;10.33;2.90;;;8.70;99.90;8.30;99592.00;;;;4904159;28;108877;-67
2024/01/01 09:51:10;;;;;;;14.70;2.47;;;8.40;99.90;8.30;99587.00;;;;4902570;28;88134;-68
2024/01/01 09:53:36;;;;;;;2.63;2.43;;;8.40;99.90;8.30;99581.00;;;;4902253;28;87359;-68
2024/01/01 09:56:02;;;;;;;8.17;3.10;;;8.40;99.90;8.30;99579.00;;;;4900689;28;88625;-67
2024/01/01 09:58:28;;;;;;;1.83;1.60;;;8.50;99.90;8.30;99586.00;;;;4903510;28;87863;-67
2024/01/01 10:01:12;;;;;;;2.87;1.97;;;8.40;99.90;8.30;99578.00;;;;4915232;28;109502;-67
2024/01/01 10:03:38;;;;;;;2.40;2.20;;;8.40;99.90;8.30;99578.00;;;;4901976;28;88366;-67
2024/01/01 10:06:11;;;;;;;4.40;2.27;;;8.50;99.90;8.40;99578.00;;;;4903175;28;88150;-68
2024/01/01 10:08:47;;;;;;;2.23;1.70;;;8.50;99.90;8.40;99582.00;;;;4902284;28;88254;-68
2024/01/01 10:11:19;;;;;;;3.37;2.17;;;8.50;99.90;8.40;99578.00;;;;4900017;28;110939;-69
2024/01/01 10:13:45;;;;;;;3.93;2.40;;;8.50;99.90;8.40;99579.00;;;;4905117;28;88145;-69
2024/01/01 10:16:27;;;;;;;2.83;1.83;;;8.50;99.90;8.50;99588.00;;;;4901278;28;106834;-67
2024/01/01 10:18:57;;;;;;;4.00;2.33;;;8.50;99.90;8.50;99583.00;;;;4903233;28;87221;-68
2024/01/01 10:21:31;;;;;;;5.33;2.37;;;8.60;99.90;8.50;99588.00;;;;4901249;28;87839;-67
2024/01/01 10:23:58;;;;;;;3.83;1.73;;;8.60;99.90;8.50;99588.00;;;;4904426;28;87916;-68
2024/01/01 10:26:24;;;;;;;4.30;2.30;;;8.60;99.90;8.60;99575.00;;;;4898247;28;108997;-67
2024/01/01 10:28:50;;;;;;;2.80;2.13;;;8.80;99.90;8.60;99581.00;;;;4903668;28;102326;-67
2024/01/01 10:31:16;;;;;;;2.43;2.13;;;8.70;99.90;8.70;99572.00;;;;4901863;28;90529;-67
2024/01/01 10:33:46;;;;;;;3.30;2.13;;;8.70;99.90;8.70;99594.00;;;;4905595;28;88019;-67
2024/01/01 10:36:16;;;;;;;1.57;1.37;;;8.80;99.90;8.70;99582.00;;;;4916226;28;102647;-67
2024/01/01 10:38:45;;;;;;;4.77;2.03;;;8.80;99.90;8.70;99589.00;;;;4898231;28;88411;-68
2024/01/01 10:41:11;;;;;;;2.60;1.63;;;8.80;99.90;8.80;99588.00;;;;4901453;28;88368;-68
2024/01/01 10:43:40;;;;;;;4.40;1.60;;;8.80;99.90;8.80;99584.00;;;;4903611;28;90212;-67
2024/01/01 10:46:06;;;;;;;4.00;1.83;;;8.80;99.90;8.80;99589.00;;;;4902363;28;89095;-66
2024/01/01 10:48:36;;;;;;;1.70;1.30;;;8.90;99.90;8.80;99585.00;;;;4897136;28;116852;-67
2024/01/01 10:51:44;;;;;;;8.90;1.87;;;8.90;99.90;8.80;99583.00;;;;4901804;28;88930;-67
2024/01/01 10:54:41;;;;;;;4.10;1.77;;;8.90;99.90;8.80;99575.00;;;;4899880;28;87835;-68
2024/01/01 10:57:22;;;;;;;2.13;1.80;;;8.90;99.90;8.80;99579.00;;;;4905720;28;107813;-68
2024/01/01 11:00:14;;;;;;;4.37;2.10;;;8.90;99.90;8.80;99578.00;;;;4889209;28;89043;-68